sensor_id;sensor_type;location;lat;lon;timestamp;P1;durP1;ratioP1;P2;durP2;ratioP2
5831;SDS011;50943;51.448;7.646;2023-02-28T00:01:06;12.10;;;4.07;;
5831;SDS011;50943;51.448;7.646;2023-02-28T00:03:34;11.20;;;4.30;;
5831;SDS011;50943;51.448;7.646;2023-02-28T00:06:01;8.57;;;4.17;;
5831;SDS011;50943;51.448;7.646;2023-02-28T00:08:28;8.27;;;4.50;;
5831;SDS011;50943;51.448;7.646;2023-02-28T00:10:54;10.53;;;4.40;;
5831;SDS011;50943;51.448;7.646;2023-02-28T00:13:21;9.83;;;4.30;;
5831;SDS011;50943;51.448;7.646;2023-02-28T00:15:49;6.97;;;3.50;;
5831;SDS011;50943;51.448;7.646;2023-02-28T00:18:24;9.60;;;4.10;;
5831;SDS011;50943;51.448;7.646;2023-02-28T00:20:52;8.97;;;4.60;;
5831;SDS011;50943;51.448;7.646;2023-02-28T00:23:19;7.77;;;4.30;;
5831;SDS011;50943;51.448;7.646;2023-02-28T00:25:45;6.10;;;3.37;;
5831;SDS011;50943;51.448;7.646;2023-02-28T00:28:12;11.80;;;4.93;;
5831;SDS011;50943;51.448;7.646;2023-02-28T00:30:38;11.30;;;4.87;;
5831;SDS011;50943;51.448;7.646;2023-02-28T00:33:05;8.47;;;4.00;;
5831;SDS011;50943;51.448;7.646;2023-02-28T00:35:32;6.33;;;3.60;;
5831;SDS011;50943;51.448;7.646;2023-02-28T00:37:59;8.00;;;4.13;;
5831;SDS011;50943;51.448;7.646;2023-02-28T00:40:26;8.43;;;4.70;;
5831;SDS011;50943;51.448;7.646;2023-02-28T00:42:55;10.10;;;4.70;;
5831;SDS011;50943;51.448;7.646;2023-02-28T00:45:21;8.30;;;4.00;;
5831;SDS011;50943;51.448;7.646;2023-02-28T00:47:48;7.73;;;4.30;;
5831;SDS011;50943;51.448;7.646;2023-02-28T00:50:15;9.87;;;3.77;;
5831;SDS011;50943;51.448;7.646;2023-02-28T00:52:42;7.50;;;4.13;;
5831;SDS011;50943;51.448;7.646;2023-02-28T00:55:10;12.70;;;3.93;;
5831;SDS011;50943;51.448;7.646;2023-02-28T00:57:37;9.13;;;4.00;;
5831;SDS011;50943;51.448;7.646;2023-02-28T01:00:04;13.80;;;4.33;;
5831;SDS011;50943;51.448;7.646;2023-02-28T01:02:31;11.07;;;4.40;;
5831;SDS011;50943;51.448;7.646;2023-02-28T01:04:58;10.80;;;4.37;;
5831;SDS011;50943;51.448;7.646;2023-02-28T01:07:24;7.23;;;4.40;;
5831;SDS011;50943;51.448;7.646;2023-02-28T01:09:51;7.20;;;3.87;;
5831;SDS011;50943;51.448;7.646;2023-02-28T01:12:21;7.97;;;3.57;;
5831;SDS011;50943;51.448;7.646;2023-02-28T01:14:48;10.03;;;3.90;;
5831;SDS011;50943;51.448;7.646;2023-02-28T01:17:14;7.23;;;3.83;;
5831;SDS011;50943;51.448;7.646;2023-02-28T01:19:40;12.10;;;3.47;;
5831;SDS011;50943;51.448;7.646;2023-02-28T01:22:07;7.77;;;3.60;;
5831;SDS011;50943;51.448;7.646;2023-02-28T01:24:34;11.10;;;3.63;;
5831;SDS011;50943;51.448;7.646;2023-02-28T01:27:01;11.63;;;4.57;;
5831;SDS011;50943;51.448;7.646;2023-02-28T01:29:30;7.50;;;3.47;;
5831;SDS011;50943;51.448;7.646;2023-02-28T01:31:56;7.50;;;3.40;;
5831;SDS011;50943;51.448;7.646;2023-02-28T01:34:24;7.33;;;3.30;;
5831;SDS011;50943;51.448;7.646;2023-02-28T01:36:51;7.40;;;3.90;;
5831;SDS011;50943;51.448;7.646;2023-02-28T01:39:17;8.00;;;3.93;;
5831;SDS011;50943;51.448;7.646;2023-02-28T01:41:43;7.57;;;3.63;;
5831;SDS011;50943;51.448;7.646;2023-02-28T01:47:16;9.80;;;4.20;;
5831;SDS011;50943;51.448;7.646;2023-02-28T01:49:42;11.93;;;4.13;;
5831;SDS011;50943;51.448;7.646;2023-02-28T01:52:09;8.80;;;4.27;;
5831;SDS011;50943;51.448;7.646;2023-02-28T01:54:43;6.67;;;3.73;;
5831;SDS011;50943;51.448;7.646;2023-02-28T01:57:12;9.17;;;3.83;;
5831;SDS011;50943;51.448;7.646;2023-02-28T01:59:41;7.70;;;3.77;;
5831;SDS011;50943;51.448;7.646;2023-02-28T02:02:11;9.80;;;4.77;;
5831;SDS011;50943;51.448;7.646;2023-02-28T02:04:39;6.73;;;4.20;;
5831;SDS011;50943;51.448;7.646;2023-02-28T02:07:09;13.20;;;5.17;;
5831;SDS011;50943;51.448;7.646;2023-02-28T02:09:36;7.27;;;3.90;;
5831;SDS011;50943;51.448;7.646;2023-02-28T02:12:04;9.30;;;4.30;;
5831;SDS011;50943;51.448;7.646;2023-02-28T02:14:42;6.97;;;3.90;;
5831;SDS011;50943;51.448;7.646;2023-02-28T02:17:16;11.90;;;4.57;;
5831;SDS011;50943;51.448;7.646;2023-02-28T02:20:02;6.47;;;4.10;;
5831;SDS011;50943;51.448;7.646;2023-02-28T02:25:34;6.90;;;4.13;;
5831;SDS011;50943;51.448;7.646;2023-02-28T02:28:14;7.33;;;4.17;;
5831;SDS011;50943;51.448;7.646;2023-02-28T02:31:00;6.13;;;3.50;;
5831;SDS011;50943;51.448;7.646;2023-02-28T02:34:02;6.83;;;3.90;;
5831;SDS011;50943;51.448;7.646;2023-02-28T02:36:45;8.73;;;3.70;;
5831;SDS011;50943;51.448;7.646;2023-02-28T02:39:17;6.80;;;4.20;;
5831;SDS011;50943;51.448;7.646;2023-02-28T02:41:47;7.57;;;4.37;;
5831;SDS011;50943;51.448;7.646;2023-02-28T02:44:17;8.27;;;3.80;;
5831;SDS011;50943;51.448;7.646;2023-02-28T02:46:47;6.83;;;4.00;;
5831;SDS011;50943;51.448;7.646;2023-02-28T02:49:17;7.40;;;4.00;;
5831;SDS011;50943;51.448;7.646;2023-02-28T02:51:47;8.67;;;4.07;;
5831;SDS011;50943;51.448;7.646;2023-02-28T02:54:17;6.60;;;3.53;;
5831;SDS011;50943;51.448;7.646;2023-02-28T02:56:47;6.70;;;3.57;;
5831;SDS011;50943;51.448;7.646;2023-02-28T02:59:15;8.33;;;4.03;;
5831;SDS011;50943;51.448;7.646;2023-02-28T03:01:46;6.20;;;3.47;;
5831;SDS011;50943;51.448;7.646;2023-02-28T03:04:18;6.93;;;4.00;;
5831;SDS011;50943;51.448;7.646;2023-02-28T03:06:45;8.10;;;3.80;;
5831;SDS011;50943;51.448;7.646;2023-02-28T03:09:12;8.93;;;4.07;;
5831;SDS011;50943;51.448;7.646;2023-02-28T03:11:38;6.37;;;3.57;;
5831;SDS011;50943;51.448;7.646;2023-02-28T03:14:18;7.73;;;3.60;;
5831;SDS011;50943;51.448;7.646;2023-02-28T03:16:59;5.93;;;3.40;;
5831;SDS011;50943;51.448;7.646;2023-02-28T03:19:33;5.47;;;3.23;;
5831;SDS011;50943;51.448;7.646;2023-02-28T03:22:09;7.93;;;3.13;;
5831;SDS011;50943;51.448;7.646;2023-02-28T03:24:42;5.70;;;3.30;;
5831;SDS011;50943;51.448;7.646;2023-02-28T03:27:12;5.67;;;3.10;;
5831;SDS011;50943;51.448;7.646;2023-02-28T03:29:43;6.63;;;3.50;;
5831;SDS011;50943;51.448;7.646;2023-02-28T03:32:13;6.43;;;3.60;;
5831;SDS011;50943;51.448;7.646;2023-02-28T03:34:48;5.77;;;3.63;;
5831;SDS011;50943;51.448;7.646;2023-02-28T03:37:18;7.47;;;3.27;;
5831;SDS011;50943;51.448;7.646;2023-02-28T03:39:47;6.97;;;3.23;;
5831;SDS011;50943;51.448;7.646;2023-02-28T03:42:18;6.97;;;3.13;;
5831;SDS011;50943;51.448;7.646;2023-02-28T03:44:48;6.00;;;3.33;;
5831;SDS011;50943;51.448;7.646;2023-02-28T03:47:17;10.40;;;3.60;;
5831;SDS011;50943;51.448;7.646;2023-02-28T03:49:51;7.67;;;3.37;;
5831;SDS011;50943;51.448;7.646;2023-02-28T03:52:20;7.63;;;3.33;;
5831;SDS011;50943;51.448;7.646;2023-02-28T03:54:50;7.77;;;3.77;;
5831;SDS011;50943;51.448;7.646;2023-02-28T03:57:20;5.77;;;3.33;;
5831;SDS011;50943;51.448;7.646;2023-02-28T03:59:49;6.87;;;2.83;;
5831;SDS011;50943;51.448;7.646;2023-02-28T04:02:20;7.53;;;3.70;;
5831;SDS011;50943;51.448;7.646;2023-02-28T04:04:47;10.60;;;3.03;;
5831;SDS011;50943;51.448;7.646;2023-02-28T04:07:15;5.57;;;3.30;;
5831;SDS011;50943;51.448;7.646;2023-02-28T04:09:42;6.33;;;3.30;;
5831;SDS011;50943;51.448;7.646;2023-02-28T04:12:09;6.37;;;2.77;;
5831;SDS011;50943;51.448;7.646;2023-02-28T04:14:36;7.80;;;3.30;;
5831;SDS011;50943;51.448;7.646;2023-02-28T04:17:02;8.80;;;3.13;;
5831;SDS011;50943;51.448;7.646;2023-02-28T04:19:29;5.93;;;3.40;;
5831;SDS011;50943;51.448;7.646;2023-02-28T04:21:55;8.33;;;3.30;;
5831;SDS011;50943;51.448;7.646;2023-02-28T04:24:24;11.83;;;3.27;;
5831;SDS011;50943;51.448;7.646;2023-02-28T04:26:52;7.00;;;3.53;;
5831;SDS011;50943;51.448;7.646;2023-02-28T04:29:21;5.10;;;3.03;;
5831;SDS011;50943;51.448;7.646;2023-02-28T04:31:49;5.20;;;3.13;;
5831;SDS011;50943;51.448;7.646;2023-02-28T04:34:15;12.73;;;3.77;;
5831;SDS011;50943;51.448;7.646;2023-02-28T04:36:43;8.43;;;3.50;;
5831;SDS011;50943;51.448;7.646;2023-02-28T04:39:10;5.63;;;3.40;;
5831;SDS011;50943;51.448;7.646;2023-02-28T04:41:39;6.70;;;3.53;;
5831;SDS011;50943;51.448;7.646;2023-02-28T04:44:05;7.10;;;3.40;;
5831;SDS011;50943;51.448;7.646;2023-02-28T04:46:32;7.50;;;3.30;;
5831;SDS011;50943;51.448;7.646;2023-02-28T04:48:58;10.77;;;3.60;;
5831;SDS011;50943;51.448;7.646;2023-02-28T04:51:25;6.40;;;3.00;;
5831;SDS011;50943;51.448;7.646;2023-02-28T04:53:51;5.50;;;3.07;;
5831;SDS011;50943;51.448;7.646;2023-02-28T04:56:18;5.67;;;3.20;;
5831;SDS011;50943;51.448;7.646;2023-02-28T04:58:46;5.80;;;2.80;;
5831;SDS011;50943;51.448;7.646;2023-02-28T05:01:17;5.97;;;3.70;;
5831;SDS011;50943;51.448;7.646;2023-02-28T05:03:46;4.80;;;3.10;;
5831;SDS011;50943;51.448;7.646;2023-02-28T05:06:12;9.93;;;3.00;;
5831;SDS011;50943;51.448;7.646;2023-02-28T05:08:39;6.90;;;3.93;;
5831;SDS011;50943;51.448;7.646;2023-02-28T05:11:06;8.07;;;3.60;;
5831;SDS011;50943;51.448;7.646;2023-02-28T05:13:34;5.50;;;3.10;;
5831;SDS011;50943;51.448;7.646;2023-02-28T05:16:03;10.90;;;4.10;;
5831;SDS011;50943;51.448;7.646;2023-02-28T05:18:30;7.60;;;3.37;;
5831;SDS011;50943;51.448;7.646;2023-02-28T05:20:56;8.43;;;3.27;;
5831;SDS011;50943;51.448;7.646;2023-02-28T05:23:23;5.67;;;3.50;;
5831;SDS011;50943;51.448;7.646;2023-02-28T05:25:50;10.53;;;3.40;;
5831;SDS011;50943;51.448;7.646;2023-02-28T05:28:17;5.17;;;3.20;;
5831;SDS011;50943;51.448;7.646;2023-02-28T05:30:44;5.20;;;3.33;;
5831;SDS011;50943;51.448;7.646;2023-02-28T05:33:12;8.97;;;3.23;;
5831;SDS011;50943;51.448;7.646;2023-02-28T05:35:38;7.87;;;3.30;;
5831;SDS011;50943;51.448;7.646;2023-02-28T05:38:05;6.53;;;3.20;;
5831;SDS011;50943;51.448;7.646;2023-02-28T05:40:32;7.07;;;3.70;;
5831;SDS011;50943;51.448;7.646;2023-02-28T05:42:59;7.27;;;3.83;;
5831;SDS011;50943;51.448;7.646;2023-02-28T05:45:25;5.50;;;2.97;;
5831;SDS011;50943;51.448;7.646;2023-02-28T05:47:52;9.00;;;2.70;;
5831;SDS011;50943;51.448;7.646;2023-02-28T05:50:20;7.57;;;3.30;;
5831;SDS011;50943;51.448;7.646;2023-02-28T05:52:48;5.63;;;2.67;;
5831;SDS011;50943;51.448;7.646;2023-02-28T05:55:15;9.90;;;3.87;;
5831;SDS011;50943;51.448;7.646;2023-02-28T05:57:42;5.17;;;3.23;;
5831;SDS011;50943;51.448;7.646;2023-02-28T06:00:09;6.97;;;3.60;;
5831;SDS011;50943;51.448;7.646;2023-02-28T06:02:37;9.60;;;3.73;;
5831;SDS011;50943;51.448;7.646;2023-02-28T06:05:05;9.00;;;4.27;;
5831;SDS011;50943;51.448;7.646;2023-02-28T06:07:34;7.17;;;4.30;;
5831;SDS011;50943;51.448;7.646;2023-02-28T06:10:01;7.27;;;3.40;;
5831;SDS011;50943;51.448;7.646;2023-02-28T06:12:27;5.67;;;3.23;;
5831;SDS011;50943;51.448;7.646;2023-02-28T06:14:54;9.07;;;3.97;;
5831;SDS011;50943;51.448;7.646;2023-02-28T06:17:20;10.93;;;3.90;;
5831;SDS011;50943;51.448;7.646;2023-02-28T06:19:47;6.20;;;3.13;;
5831;SDS011;50943;51.448;7.646;2023-02-28T06:22:14;6.10;;;3.47;;
5831;SDS011;50943;51.448;7.646;2023-02-28T06:24:41;7.60;;;3.97;;
5831;SDS011;50943;51.448;7.646;2023-02-28T06:27:08;7.20;;;3.87;;
5831;SDS011;50943;51.448;7.646;2023-02-28T06:29:35;6.63;;;3.90;;
5831;SDS011;50943;51.448;7.646;2023-02-28T06:32:04;6.93;;;3.60;;
5831;SDS011;50943;51.448;7.646;2023-02-28T06:34:32;10.00;;;4.73;;
5831;SDS011;50943;51.448;7.646;2023-02-28T06:36:59;6.30;;;3.40;;
5831;SDS011;50943;51.448;7.646;2023-02-28T06:39:27;9.43;;;3.90;;
5831;SDS011;50943;51.448;7.646;2023-02-28T06:41:54;18.27;;;7.50;;
5831;SDS011;50943;51.448;7.646;2023-02-28T06:44:22;22.63;;;8.27;;
5831;SDS011;50943;51.448;7.646;2023-02-28T06:46:48;11.43;;;6.10;;
5831;SDS011;50943;51.448;7.646;2023-02-28T06:49:15;12.43;;;7.03;;
5831;SDS011;50943;51.448;7.646;2023-02-28T06:51:42;13.60;;;7.90;;
5831;SDS011;50943;51.448;7.646;2023-02-28T06:54:10;15.80;;;7.07;;
5831;SDS011;50943;51.448;7.646;2023-02-28T06:56:37;15.63;;;6.50;;
5831;SDS011;50943;51.448;7.646;2023-02-28T06:59:05;11.33;;;6.03;;
5831;SDS011;50943;51.448;7.646;2023-02-28T07:01:34;13.33;;;6.50;;
5831;SDS011;50943;51.448;7.646;2023-02-28T07:04:01;12.37;;;5.60;;
5831;SDS011;50943;51.448;7.646;2023-02-28T07:06:27;11.97;;;6.30;;
5831;SDS011;50943;51.448;7.646;2023-02-28T07:08:54;12.07;;;5.97;;
5831;SDS011;50943;51.448;7.646;2023-02-28T07:11:21;9.27;;;5.33;;
5831;SDS011;50943;51.448;7.646;2023-02-28T07:13:50;16.07;;;6.70;;
5831;SDS011;50943;51.448;7.646;2023-02-28T07:16:18;10.23;;;5.27;;
5831;SDS011;50943;51.448;7.646;2023-02-28T07:18:45;14.90;;;6.13;;
5831;SDS011;50943;51.448;7.646;2023-02-28T07:21:11;10.60;;;5.47;;
5831;SDS011;50943;51.448;7.646;2023-02-28T07:23:38;8.70;;;5.20;;
5831;SDS011;50943;51.448;7.646;2023-02-28T07:26:05;10.10;;;5.30;;
5831;SDS011;50943;51.448;7.646;2023-02-28T07:28:31;13.60;;;4.57;;
5831;SDS011;50943;51.448;7.646;2023-02-28T07:31:02;8.70;;;4.50;;
5831;SDS011;50943;51.448;7.646;2023-02-28T07:33:31;8.63;;;5.00;;
5831;SDS011;50943;51.448;7.646;2023-02-28T07:36:01;9.07;;;4.23;;
5831;SDS011;50943;51.448;7.646;2023-02-28T07:38:29;11.83;;;5.07;;
5831;SDS011;50943;51.448;7.646;2023-02-28T07:40:56;7.73;;;4.00;;
5831;SDS011;50943;51.448;7.646;2023-02-28T07:43:22;11.13;;;4.73;;
5831;SDS011;50943;51.448;7.646;2023-02-28T07:45:49;8.50;;;4.87;;
5831;SDS011;50943;51.448;7.646;2023-02-28T07:48:15;8.67;;;4.90;;
5831;SDS011;50943;51.448;7.646;2023-02-28T07:50:43;9.70;;;5.17;;
5831;SDS011;50943;51.448;7.646;2023-02-28T07:53:13;9.43;;;4.63;;
5831;SDS011;50943;51.448;7.646;2023-02-28T07:55:39;10.00;;;5.13;;
5831;SDS011;50943;51.448;7.646;2023-02-28T07:58:06;8.93;;;4.80;;
5831;SDS011;50943;51.448;7.646;2023-02-28T08:00:32;11.10;;;5.23;;
5831;SDS011;50943;51.448;7.646;2023-02-28T08:03:02;8.47;;;4.60;;
5831;SDS011;50943;51.448;7.646;2023-02-28T08:05:28;7.73;;;4.30;;
5831;SDS011;50943;51.448;7.646;2023-02-28T08:07:58;5.87;;;3.97;;
5831;SDS011;50943;51.448;7.646;2023-02-28T08:10:25;7.70;;;4.77;;
5831;SDS011;50943;51.448;7.646;2023-02-28T08:12:51;8.13;;;4.27;;
5831;SDS011;50943;51.448;7.646;2023-02-28T08:15:18;8.30;;;4.30;;
5831;SDS011;50943;51.448;7.646;2023-02-28T08:17:44;13.57;;;4.47;;
5831;SDS011;50943;51.448;7.646;2023-02-28T08:20:11;5.53;;;3.47;;
5831;SDS011;50943;51.448;7.646;2023-02-28T08:22:38;7.73;;;4.40;;
5831;SDS011;50943;51.448;7.646;2023-02-28T08:25:06;10.90;;;4.80;;
5831;SDS011;50943;51.448;7.646;2023-02-28T08:27:34;9.97;;;4.90;;
5831;SDS011;50943;51.448;7.646;2023-02-28T08:30:01;7.03;;;3.80;;
5831;SDS011;50943;51.448;7.646;2023-02-28T08:32:28;8.53;;;3.80;;
5831;SDS011;50943;51.448;7.646;2023-02-28T08:34:54;10.33;;;5.20;;
5831;SDS011;50943;51.448;7.646;2023-02-28T08:37:21;6.80;;;4.23;;
5831;SDS011;50943;51.448;7.646;2023-02-28T08:39:47;9.00;;;4.60;;
5831;SDS011;50943;51.448;7.646;2023-02-28T08:42:15;6.37;;;4.10;;
5831;SDS011;50943;51.448;7.646;2023-02-28T08:44:42;15.23;;;5.33;;
5831;SDS011;50943;51.448;7.646;2023-02-28T08:47:08;6.77;;;4.03;;
5831;SDS011;50943;51.448;7.646;2023-02-28T08:49:35;10.00;;;4.50;;
5831;SDS011;50943;51.448;7.646;2023-02-28T08:52:02;6.17;;;3.77;;
5831;SDS011;50943;51.448;7.646;2023-02-28T08:54:29;7.13;;;4.53;;
5831;SDS011;50943;51.448;7.646;2023-02-28T08:56:57;5.80;;;3.40;;
5831;SDS011;50943;51.448;7.646;2023-02-28T08:59:25;5.67;;;3.30;;
5831;SDS011;50943;51.448;7.646;2023-02-28T09:01:51;5.97;;;4.07;;
5831;SDS011;50943;51.448;7.646;2023-02-28T09:04:18;7.67;;;3.90;;
5831;SDS011;50943;51.448;7.646;2023-02-28T09:06:44;5.13;;;3.67;;
5831;SDS011;50943;51.448;7.646;2023-02-28T09:09:11;7.03;;;4.10;;
5831;SDS011;50943;51.448;7.646;2023-02-28T09:11:37;7.00;;;3.93;;
5831;SDS011;50943;51.448;7.646;2023-02-28T09:14:04;7.33;;;4.10;;
5831;SDS011;50943;51.448;7.646;2023-02-28T09:16:32;11.03;;;3.87;;
5831;SDS011;50943;51.448;7.646;2023-02-28T09:19:01;7.37;;;3.37;;
5831;SDS011;50943;51.448;7.646;2023-02-28T09:21:27;11.13;;;3.70;;
5831;SDS011;50943;51.448;7.646;2023-02-28T09:23:54;4.20;;;2.90;;
5831;SDS011;50943;51.448;7.646;2023-02-28T09:26:21;8.77;;;4.00;;
5831;SDS011;50943;51.448;7.646;2023-02-28T09:28:48;6.00;;;3.30;;
5831;SDS011;50943;51.448;7.646;2023-02-28T09:31:17;5.50;;;3.93;;
5831;SDS011;50943;51.448;7.646;2023-02-28T09:33:48;4.50;;;3.00;;
5831;SDS011;50943;51.448;7.646;2023-02-28T09:36:14;5.37;;;3.10;;
5831;SDS011;50943;51.448;7.646;2023-02-28T09:38:41;6.97;;;3.20;;
5831;SDS011;50943;51.448;7.646;2023-02-28T09:41:10;11.80;;;2.97;;
5831;SDS011;50943;51.448;7.646;2023-02-28T09:43:40;7.87;;;3.57;;
5831;SDS011;50943;51.448;7.646;2023-02-28T09:46:12;4.83;;;2.70;;
5831;SDS011;50943;51.448;7.646;2023-02-28T09:48:44;6.00;;;3.43;;
5831;SDS011;50943;51.448;7.646;2023-02-28T09:51:16;7.40;;;3.30;;
5831;SDS011;50943;51.448;7.646;2023-02-28T09:53:53;5.97;;;3.53;;
5831;SDS011;50943;51.448;7.646;2023-02-28T09:56:20;6.47;;;2.60;;
5831;SDS011;50943;51.448;7.646;2023-02-28T09:58:52;5.00;;;2.83;;
5831;SDS011;50943;51.448;7.646;2023-02-28T10:01:21;6.73;;;2.87;;
5831;SDS011;50943;51.448;7.646;2023-02-28T10:03:55;4.63;;;2.40;;
5831;SDS011;50943;51.448;7.646;2023-02-28T10:06:26;4.67;;;2.83;;
5831;SDS011;50943;51.448;7.646;2023-02-28T10:08:56;4.43;;;2.33;;
5831;SDS011;50943;51.448;7.646;2023-02-28T10:11:26;3.80;;;2.00;;
5831;SDS011;50943;51.448;7.646;2023-02-28T10:13:53;4.40;;;2.40;;
5831;SDS011;50943;51.448;7.646;2023-02-28T10:16:27;4.17;;;2.90;;
5831;SDS011;50943;51.448;7.646;2023-02-28T10:18:59;3.10;;;2.13;;
5831;SDS011;50943;51.448;7.646;2023-02-28T10:21:31;2.90;;;1.97;;
5831;SDS011;50943;51.448;7.646;2023-02-28T10:24:03;3.60;;;2.10;;
5831;SDS011;50943;51.448;7.646;2023-02-28T10:26:32;2.43;;;1.77;;
5831;SDS011;50943;51.448;7.646;2023-02-28T10:28:58;4.47;;;1.83;;
5831;SDS011;50943;51.448;7.646;2023-02-28T10:31:25;3.97;;;2.07;;
5831;SDS011;50943;51.448;7.646;2023-02-28T10:33:52;4.57;;;2.27;;
5831;SDS011;50943;51.448;7.646;2023-02-28T10:36:19;2.83;;;1.93;;
5831;SDS011;50943;51.448;7.646;2023-02-28T10:38:48;3.23;;;1.87;;
5831;SDS011;50943;51.448;7.646;2023-02-28T10:41:16;8.40;;;2.50;;
5831;SDS011;50943;51.448;7.646;2023-02-28T10:43:52;4.37;;;2.20;;
5831;SDS011;50943;51.448;7.646;2023-02-28T10:46:18;4.10;;;2.43;;
5831;SDS011;50943;51.448;7.646;2023-02-28T10:48:57;5.90;;;1.80;;
5831;SDS011;50943;51.448;7.646;2023-02-28T10:51:33;4.67;;;2.37;;
5831;SDS011;50943;51.448;7.646;2023-02-28T10:54:02;4.20;;;2.23;;
5831;SDS011;50943;51.448;7.646;2023-02-28T10:56:29;4.97;;;1.87;;
5831;SDS011;50943;51.448;7.646;2023-02-28T10:58:57;7.80;;;2.90;;
5831;SDS011;50943;51.448;7.646;2023-02-28T11:01:34;5.60;;;2.67;;
5831;SDS011;50943;51.448;7.646;2023-02-28T11:04:03;3.50;;;2.27;;
5831;SDS011;50943;51.448;7.646;2023-02-28T11:06:30;2.67;;;1.90;;
5831;SDS011;50943;51.448;7.646;2023-02-28T11:08:58;6.23;;;2.50;;
5831;SDS011;50943;51.448;7.646;2023-02-28T11:11:27;4.23;;;2.30;;
5831;SDS011;50943;51.448;7.646;2023-02-28T11:13:56;3.60;;;2.10;;
5831;SDS011;50943;51.448;7.646;2023-02-28T11:16:33;3.97;;;1.83;;
5831;SDS011;50943;51.448;7.646;2023-02-28T11:19:00;3.80;;;2.20;;
5831;SDS011;50943;51.448;7.646;2023-02-28T11:21:29;5.63;;;2.10;;
5831;SDS011;50943;51.448;7.646;2023-02-28T11:24:00;2.97;;;2.20;;
5831;SDS011;50943;51.448;7.646;2023-02-28T11:26:37;3.83;;;2.43;;
5831;SDS011;50943;51.448;7.646;2023-02-28T11:29:12;4.50;;;2.30;;
5831;SDS011;50943;51.448;7.646;2023-02-28T11:31:45;3.30;;;2.20;;
5831;SDS011;50943;51.448;7.646;2023-02-28T11:34:27;4.43;;;2.70;;
5831;SDS011;50943;51.448;7.646;2023-02-28T11:36:57;5.17;;;2.60;;
5831;SDS011;50943;51.448;7.646;2023-02-28T11:39:25;4.63;;;2.40;;
5831;SDS011;50943;51.448;7.646;2023-02-28T11:42:10;4.90;;;2.20;;
5831;SDS011;50943;51.448;7.646;2023-02-28T11:44:48;4.57;;;2.00;;
5831;SDS011;50943;51.448;7.646;2023-02-28T11:47:25;4.33;;;2.07;;
5831;SDS011;50943;51.448;7.646;2023-02-28T11:50:04;3.60;;;2.40;;
5831;SDS011;50943;51.448;7.646;2023-02-28T11:52:39;4.57;;;2.37;;
5831;SDS011;50943;51.448;7.646;2023-02-28T11:55:14;4.73;;;2.10;;
5831;SDS011;50943;51.448;7.646;2023-02-28T11:57:49;2.90;;;2.20;;
5831;SDS011;50943;51.448;7.646;2023-02-28T12:00:29;3.93;;;2.20;;
5831;SDS011;50943;51.448;7.646;2023-02-28T12:03:07;4.70;;;2.07;;
5831;SDS011;50943;51.448;7.646;2023-02-28T12:05:39;6.33;;;2.17;;
5831;SDS011;50943;51.448;7.646;2023-02-28T12:08:14;5.67;;;2.50;;
5831;SDS011;50943;51.448;7.646;2023-02-28T12:10:52;3.27;;;2.00;;
5831;SDS011;50943;51.448;7.646;2023-02-28T12:13:26;5.00;;;2.60;;
5831;SDS011;50943;51.448;7.646;2023-02-28T12:16:00;5.93;;;2.20;;
5831;SDS011;50943;51.448;7.646;2023-02-28T12:18:44;3.67;;;2.50;;
5831;SDS011;50943;51.448;7.646;2023-02-28T12:21:18;6.13;;;2.20;;
5831;SDS011;50943;51.448;7.646;2023-02-28T12:23:55;6.03;;;2.87;;
5831;SDS011;50943;51.448;7.646;2023-02-28T12:26:31;5.13;;;2.60;;
5831;SDS011;50943;51.448;7.646;2023-02-28T12:29:05;3.47;;;1.97;;
5831;SDS011;50943;51.448;7.646;2023-02-28T12:31:38;3.50;;;2.17;;
5831;SDS011;50943;51.448;7.646;2023-02-28T12:34:08;3.57;;;2.20;;
5831;SDS011;50943;51.448;7.646;2023-02-28T12:36:38;3.90;;;2.13;;
5831;SDS011;50943;51.448;7.646;2023-02-28T12:39:07;3.40;;;2.33;;
5831;SDS011;50943;51.448;7.646;2023-02-28T12:41:37;3.60;;;2.40;;
5831;SDS011;50943;51.448;7.646;2023-02-28T12:44:07;7.10;;;2.77;;
5831;SDS011;50943;51.448;7.646;2023-02-28T12:46:36;4.60;;;2.00;;
5831;SDS011;50943;51.448;7.646;2023-02-28T12:49:08;6.63;;;2.63;;
5831;SDS011;50943;51.448;7.646;2023-02-28T12:51:36;2.83;;;2.30;;
5831;SDS011;50943;51.448;7.646;2023-02-28T12:54:04;5.57;;;2.50;;
5831;SDS011;50943;51.448;7.646;2023-02-28T12:56:42;6.60;;;2.40;;
5831;SDS011;50943;51.448;7.646;2023-02-28T12:59:14;7.00;;;2.70;;
5831;SDS011;50943;51.448;7.646;2023-02-28T13:01:48;4.13;;;2.03;;
5831;SDS011;50943;51.448;7.646;2023-02-28T13:07:16;5.67;;;2.80;;
5831;SDS011;50943;51.448;7.646;2023-02-28T13:09:53;4.63;;;2.63;;
5831;SDS011;50943;51.448;7.646;2023-02-28T13:12:21;4.57;;;2.90;;
5831;SDS011;50943;51.448;7.646;2023-02-28T13:14:49;4.80;;;3.10;;
5831;SDS011;50943;51.448;7.646;2023-02-28T13:17:17;3.80;;;2.70;;
5831;SDS011;50943;51.448;7.646;2023-02-28T13:19:45;3.23;;;2.00;;
5831;SDS011;50943;51.448;7.646;2023-02-28T13:22:17;4.07;;;2.63;;
5831;SDS011;50943;51.448;7.646;2023-02-28T13:24:46;3.60;;;2.10;;
5831;SDS011;50943;51.448;7.646;2023-02-28T13:27:21;5.43;;;2.40;;
5831;SDS011;50943;51.448;7.646;2023-02-28T13:29:52;4.97;;;2.20;;
5831;SDS011;50943;51.448;7.646;2023-02-28T13:32:28;7.87;;;2.73;;
5831;SDS011;50943;51.448;7.646;2023-02-28T13:44:05;5.17;;;2.50;;
5831;SDS011;50943;51.448;7.646;2023-02-28T13:46:34;4.70;;;2.23;;
5831;SDS011;50943;51.448;7.646;2023-02-28T13:51:47;3.60;;;2.20;;
5831;SDS011;50943;51.448;7.646;2023-02-28T13:54:17;2.80;;;2.10;;
5831;SDS011;50943;51.448;7.646;2023-02-28T13:56:48;4.03;;;2.53;;
5831;SDS011;50943;51.448;7.646;2023-02-28T13:59:24;2.93;;;1.93;;
5831;SDS011;50943;51.448;7.646;2023-02-28T14:02:01;3.47;;;2.17;;
5831;SDS011;50943;51.448;7.646;2023-02-28T14:04:42;3.67;;;2.23;;
5831;SDS011;50943;51.448;7.646;2023-02-28T14:07:18;4.50;;;2.50;;
5831;SDS011;50943;51.448;7.646;2023-02-28T14:09:48;3.83;;;2.60;;
5831;SDS011;50943;51.448;7.646;2023-02-28T14:15:28;4.30;;;2.57;;
5831;SDS011;50943;51.448;7.646;2023-02-28T14:18:17;5.00;;;2.37;;
5831;SDS011;50943;51.448;7.646;2023-02-28T14:20:49;3.70;;;2.47;;
5831;SDS011;50943;51.448;7.646;2023-02-28T14:23:22;4.00;;;2.43;;
5831;SDS011;50943;51.448;7.646;2023-02-28T14:25:59;3.97;;;2.50;;
5831;SDS011;50943;51.448;7.646;2023-02-28T14:28:36;6.27;;;2.70;;
5831;SDS011;50943;51.448;7.646;2023-02-28T14:31:12;4.23;;;2.63;;
5831;SDS011;50943;51.448;7.646;2023-02-28T14:33:45;9.03;;;2.67;;
5831;SDS011;50943;51.448;7.646;2023-02-28T14:36:17;3.33;;;2.07;;
5831;SDS011;50943;51.448;7.646;2023-02-28T14:38:47;4.03;;;2.60;;
5831;SDS011;50943;51.448;7.646;2023-02-28T14:41:22;4.87;;;2.70;;
5831;SDS011;50943;51.448;7.646;2023-02-28T14:43:51;5.73;;;2.70;;
5831;SDS011;50943;51.448;7.646;2023-02-28T14:46:20;5.90;;;3.17;;
5831;SDS011;50943;51.448;7.646;2023-02-28T14:48:49;4.60;;;3.00;;
5831;SDS011;50943;51.448;7.646;2023-02-28T14:51:19;4.73;;;3.10;;
5831;SDS011;50943;51.448;7.646;2023-02-28T14:53:48;4.70;;;2.87;;
5831;SDS011;50943;51.448;7.646;2023-02-28T14:56:23;5.17;;;2.97;;
5831;SDS011;50943;51.448;7.646;2023-02-28T14:58:52;7.40;;;2.70;;
5831;SDS011;50943;51.448;7.646;2023-02-28T15:01:20;4.03;;;2.57;;
5831;SDS011;50943;51.448;7.646;2023-02-28T15:03:48;5.77;;;3.20;;
5831;SDS011;50943;51.448;7.646;2023-02-28T15:06:23;5.60;;;3.67;;
5831;SDS011;50943;51.448;7.646;2023-02-28T15:11:40;4.83;;;3.00;;
5831;SDS011;50943;51.448;7.646;2023-02-28T15:14:07;4.83;;;2.87;;
5831;SDS011;50943;51.448;7.646;2023-02-28T15:16:39;3.90;;;2.87;;
5831;SDS011;50943;51.448;7.646;2023-02-28T15:19:12;7.90;;;2.57;;
5831;SDS011;50943;51.448;7.646;2023-02-28T15:21:41;5.10;;;3.37;;
5831;SDS011;50943;51.448;7.646;2023-02-28T15:24:10;8.77;;;3.20;;
5831;SDS011;50943;51.448;7.646;2023-02-28T15:26:42;4.50;;;2.77;;
5831;SDS011;50943;51.448;7.646;2023-02-28T15:29:11;3.37;;;2.70;;
5831;SDS011;50943;51.448;7.646;2023-02-28T15:31:43;4.50;;;3.07;;
5831;SDS011;50943;51.448;7.646;2023-02-28T15:34:16;4.70;;;2.70;;
5831;SDS011;50943;51.448;7.646;2023-02-28T15:36:44;5.60;;;2.83;;
5831;SDS011;50943;51.448;7.646;2023-02-28T15:39:18;4.17;;;2.70;;
5831;SDS011;50943;51.448;7.646;2023-02-28T15:41:46;5.50;;;2.87;;